sensor_id;sensor_type;location;lat;lon;timestamp;P1;durP1;ratioP1;P2;durP2;ratioP2
26271;SDS011;13997;48.902;12.472;2023-03-01T00:01:22;32.95;;;16.60;;
26271;SDS011;13997;48.902;12.472;2023-03-01T00:03:51;27.95;;;15.75;;
26271;SDS011;13997;48.902;12.472;2023-03-01T00:06:17;30.77;;;14.93;;
26271;SDS011;13997;48.902;12.472;2023-03-01T00:08:43;30.55;;;15.65;;
26271;SDS011;13997;48.902;12.472;2023-03-01T00:13:42;55.97;;;25.10;;
26271;SDS011;13997;48.902;12.472;2023-03-01T00:16:10;51.30;;;23.73;;
26271;SDS011;13997;48.902;12.472;2023-03-01T00:18:43;59.72;;;24.52;;
26271;SDS011;13997;48.902;12.472;2023-03-01T00:21:09;55.75;;;23.45;;
26271;SDS011;13997;48.902;12.472;2023-03-01T00:23:35;65.85;;;27.50;;
26271;SDS011;13997;48.902;12.472;2023-03-01T00:26:01;65.85;;;28.45;;
26271;SDS011;13997;48.902;12.472;2023-03-01T00:28:31;54.53;;;24.52;;
26271;SDS011;13997;48.902;12.472;2023-03-01T00:30:56;39.80;;;20.05;;
26271;SDS011;13997;48.902;12.472;2023-03-01T00:33:28;39.20;;;19.17;;
26271;SDS011;13997;48.902;12.472;2023-03-01T00:35:54;37.25;;;18.35;;
26271;SDS011;13997;48.902;12.472;2023-03-01T00:38:19;44.13;;;19.42;;
26271;SDS011;13997;48.902;12.472;2023-03-01T00:40:45;47.90;;;20.38;;
26271;SDS011;13997;48.902;12.472;2023-03-01T00:43:11;59.70;;;25.52;;
26271;SDS011;13997;48.902;12.472;2023-03-01T00:45:36;52.15;;;23.38;;
26271;SDS011;13997;48.902;12.472;2023-03-01T00:48:02;51.42;;;23.50;;
26271;SDS011;13997;48.902;12.472;2023-03-01T00:50:28;50.97;;;22.30;;
26271;SDS011;13997;48.902;12.472;2023-03-01T00:52:54;50.75;;;22.48;;
26271;SDS011;13997;48.902;12.472;2023-03-01T00:55:21;50.72;;;23.58;;
26271;SDS011;13997;48.902;12.472;2023-03-01T00:57:47;50.78;;;21.60;;
26271;SDS011;13997;48.902;12.472;2023-03-01T01:00:12;41.22;;;20.75;;
26271;SDS011;13997;48.902;12.472;2023-03-01T01:02:38;38.22;;;19.17;;
26271;SDS011;13997;48.902;12.472;2023-03-01T01:05:05;33.45;;;16.45;;
26271;SDS011;13997;48.902;12.472;2023-03-01T01:07:31;36.22;;;17.85;;
26271;SDS011;13997;48.902;12.472;2023-03-01T01:09:57;33.35;;;16.02;;
26271;SDS011;13997;48.902;12.472;2023-03-01T01:12:23;33.25;;;16.67;;
26271;SDS011;13997;48.902;12.472;2023-03-01T01:14:48;35.20;;;16.17;;
26271;SDS011;13997;48.902;12.472;2023-03-01T01:17:14;33.00;;;16.95;;
26271;SDS011;13997;48.902;12.472;2023-03-01T01:19:40;31.60;;;16.42;;
26271;SDS011;13997;48.902;12.472;2023-03-01T01:22:05;30.40;;;16.38;;
26271;SDS011;13997;48.902;12.472;2023-03-01T01:24:31;34.30;;;17.10;;
26271;SDS011;13997;48.902;12.472;2023-03-01T01:26:56;37.15;;;18.00;;
26271;SDS011;13997;48.902;12.472;2023-03-01T01:29:22;34.38;;;17.35;;
26271;SDS011;13997;48.902;12.472;2023-03-01T01:31:48;36.20;;;17.83;;
26271;SDS011;13997;48.902;12.472;2023-03-01T01:34:14;39.10;;;18.30;;
26271;SDS011;13997;48.902;12.472;2023-03-01T01:36:44;32.47;;;17.35;;
26271;SDS011;13997;48.902;12.472;2023-03-01T01:39:12;32.40;;;16.00;;
26271;SDS011;13997;48.902;12.472;2023-03-01T01:41:39;34.78;;;16.88;;
26271;SDS011;13997;48.902;12.472;2023-03-01T01:44:14;31.58;;;15.73;;
26271;SDS011;13997;48.902;12.472;2023-03-01T01:46:47;32.72;;;16.85;;
26271;SDS011;13997;48.902;12.472;2023-03-01T01:49:45;30.50;;;16.42;;
26271;SDS011;13997;48.902;12.472;2023-03-01T01:52:18;31.35;;;16.80;;
26271;SDS011;13997;48.902;12.472;2023-03-01T01:54:59;31.85;;;16.48;;
26271;SDS011;13997;48.902;12.472;2023-03-01T01:57:33;27.83;;;15.88;;
26271;SDS011;13997;48.902;12.472;2023-03-01T02:00:03;31.58;;;16.08;;
26271;SDS011;13997;48.902;12.472;2023-03-01T02:02:31;29.38;;;15.57;;
26271;SDS011;13997;48.902;12.472;2023-03-01T02:05:06;34.70;;;17.33;;
26271;SDS011;13997;48.902;12.472;2023-03-01T02:07:39;31.85;;;17.50;;
26271;SDS011;13997;48.902;12.472;2023-03-01T02:10:07;34.60;;;16.90;;
26271;SDS011;13997;48.902;12.472;2023-03-01T02:12:34;40.33;;;18.35;;
26271;SDS011;13997;48.902;12.472;2023-03-01T02:15:04;34.25;;;17.55;;
26271;SDS011;13997;48.902;12.472;2023-03-01T02:17:30;31.88;;;16.65;;
26271;SDS011;13997;48.902;12.472;2023-03-01T02:22:25;32.65;;;17.58;;
26271;SDS011;13997;48.902;12.472;2023-03-01T02:27:48;30.75;;;16.70;;
26271;SDS011;13997;48.902;12.472;2023-03-01T02:30:36;33.47;;;15.70;;
26271;SDS011;13997;48.902;12.472;2023-03-01T02:33:22;29.80;;;14.68;;
26271;SDS011;13997;48.902;12.472;2023-03-01T02:35:48;26.25;;;14.25;;
26271;SDS011;13997;48.902;12.472;2023-03-01T02:38:14;27.92;;;14.93;;
26271;SDS011;13997;48.902;12.472;2023-03-01T02:40:40;28.92;;;14.27;;
26271;SDS011;13997;48.902;12.472;2023-03-01T02:43:06;35.78;;;14.95;;
26271;SDS011;13997;48.902;12.472;2023-03-01T02:45:35;24.80;;;13.93;;
26271;SDS011;13997;48.902;12.472;2023-03-01T02:48:00;31.15;;;15.98;;
26271;SDS011;13997;48.902;12.472;2023-03-01T02:55:41;28.23;;;15.60;;
26271;SDS011;13997;48.902;12.472;2023-03-01T02:58:06;35.85;;;16.63;;
26271;SDS011;13997;48.902;12.472;2023-03-01T03:00:37;33.38;;;16.73;;
26271;SDS011;13997;48.902;12.472;2023-03-01T03:03:15;31.80;;;16.58;;
26271;SDS011;13997;48.902;12.472;2023-03-01T03:05:42;34.60;;;16.93;;
26271;SDS011;13997;48.902;12.472;2023-03-01T03:08:07;35.50;;;16.65;;
26271;SDS011;13997;48.902;12.472;2023-03-01T03:10:35;33.85;;;16.30;;
26271;SDS011;13997;48.902;12.472;2023-03-01T03:13:03;32.40;;;16.00;;
26271;SDS011;13997;48.902;12.472;2023-03-01T03:15:37;32.05;;;15.82;;
26271;SDS011;13997;48.902;12.472;2023-03-01T03:18:06;31.33;;;15.65;;
26271;SDS011;13997;48.902;12.472;2023-03-01T03:20:36;29.35;;;15.98;;
26271;SDS011;13997;48.902;12.472;2023-03-01T03:23:04;38.67;;;15.93;;
26271;SDS011;13997;48.902;12.472;2023-03-01T03:25:30;27.85;;;15.13;;
26271;SDS011;13997;48.902;12.472;2023-03-01T03:27:56;35.80;;;17.10;;
26271;SDS011;13997;48.902;12.472;2023-03-01T03:30:25;30.95;;;15.23;;
26271;SDS011;13997;48.902;12.472;2023-03-01T03:32:53;28.92;;;15.30;;
26271;SDS011;13997;48.902;12.472;2023-03-01T03:37:47;32.55;;;16.98;;
26271;SDS011;13997;48.902;12.472;2023-03-01T03:40:50;33.22;;;16.63;;
26271;SDS011;13997;48.902;12.472;2023-03-01T03:43:16;33.25;;;16.55;;
26271;SDS011;13997;48.902;12.472;2023-03-01T03:45:47;30.85;;;15.57;;
26271;SDS011;13997;48.902;12.472;2023-03-01T03:48:14;33.45;;;16.40;;
26271;SDS011;13997;48.902;12.472;2023-03-01T03:50:40;36.70;;;17.48;;
26271;SDS011;13997;48.902;12.472;2023-03-01T03:53:07;35.78;;;16.80;;
26271;SDS011;13997;48.902;12.472;2023-03-01T03:55:34;35.55;;;16.67;;
26271;SDS011;13997;48.902;12.472;2023-03-01T03:58:04;33.38;;;16.63;;
26271;SDS011;13997;48.902;12.472;2023-03-01T04:00:35;32.78;;;16.98;;
26271;SDS011;13997;48.902;12.472;2023-03-01T04:03:05;32.17;;;16.13;;
26271;SDS011;13997;48.902;12.472;2023-03-01T04:05:31;38.65;;;17.08;;
26271;SDS011;13997;48.902;12.472;2023-03-01T04:07:57;34.40;;;16.67;;
26271;SDS011;13997;48.902;12.472;2023-03-01T04:10:27;35.85;;;17.23;;
26271;SDS011;13997;48.902;12.472;2023-03-01T04:12:57;35.10;;;17.23;;
26271;SDS011;13997;48.902;12.472;2023-03-01T04:15:23;35.33;;;16.42;;
26271;SDS011;13997;48.902;12.472;2023-03-01T04:17:50;37.03;;;16.92;;
26271;SDS011;13997;48.902;12.472;2023-03-01T04:20:18;28.55;;;15.27;;
26271;SDS011;13997;48.902;12.472;2023-03-01T04:22:56;35.25;;;16.70;;
26271;SDS011;13997;48.902;12.472;2023-03-01T04:28:19;35.60;;;16.67;;
26271;SDS011;13997;48.902;12.472;2023-03-01T04:30:55;33.90;;;16.08;;
26271;SDS011;13997;48.902;12.472;2023-03-01T04:33:22;40.05;;;17.55;;
26271;SDS011;13997;48.902;12.472;2023-03-01T04:35:50;30.67;;;15.90;;
26271;SDS011;13997;48.902;12.472;2023-03-01T04:38:19;33.70;;;16.75;;
26271;SDS011;13997;48.902;12.472;2023-03-01T04:40:46;35.73;;;16.57;;
26271;SDS011;13997;48.902;12.472;2023-03-01T04:43:12;34.45;;;17.60;;
26271;SDS011;13997;48.902;12.472;2023-03-01T04:45:42;36.90;;;17.63;;
26271;SDS011;13997;48.902;12.472;2023-03-01T04:48:08;34.40;;;17.50;;
26271;SDS011;13997;48.902;12.472;2023-03-01T04:50:34;39.75;;;17.83;;
26271;SDS011;13997;48.902;12.472;2023-03-01T04:53:00;35.80;;;18.05;;
26271;SDS011;13997;48.902;12.472;2023-03-01T04:55:26;34.30;;;18.38;;
26271;SDS011;13997;48.902;12.472;2023-03-01T04:57:52;33.92;;;17.30;;
26271;SDS011;13997;48.902;12.472;2023-03-01T05:00:19;34.72;;;17.25;;
26271;SDS011;13997;48.902;12.472;2023-03-01T05:02:52;36.92;;;18.00;;
26271;SDS011;13997;48.902;12.472;2023-03-01T05:05:19;35.95;;;17.90;;
26271;SDS011;13997;48.902;12.472;2023-03-01T05:07:46;38.15;;;19.40;;
26271;SDS011;13997;48.902;12.472;2023-03-01T05:10:12;37.38;;;19.52;;
26271;SDS011;13997;48.902;12.472;2023-03-01T05:12:38;43.00;;;20.08;;
26271;SDS011;13997;48.902;12.472;2023-03-01T05:15:04;40.33;;;19.48;;
26271;SDS011;13997;48.902;12.472;2023-03-01T05:17:32;46.88;;;20.05;;
26271;SDS011;13997;48.902;12.472;2023-03-01T05:19:59;41.08;;;19.60;;
26271;SDS011;13997;48.902;12.472;2023-03-01T05:22:25;36.90;;;18.17;;
26271;SDS011;13997;48.902;12.472;2023-03-01T05:24:50;42.67;;;17.85;;
26271;SDS011;13997;48.902;12.472;2023-03-01T05:27:16;39.10;;;18.52;;
26271;SDS011;13997;48.902;12.472;2023-03-01T05:29:41;38.00;;;18.80;;
26271;SDS011;13997;48.902;12.472;2023-03-01T05:32:07;38.70;;;18.25;;
26271;SDS011;13997;48.902;12.472;2023-03-01T05:34:34;34.25;;;16.95;;
26271;SDS011;13997;48.902;12.472;2023-03-01T05:37:01;34.78;;;17.40;;
26271;SDS011;13997;48.902;12.472;2023-03-01T05:39:28;33.42;;;16.98;;
26271;SDS011;13997;48.902;12.472;2023-03-01T05:41:58;36.72;;;17.73;;
26271;SDS011;13997;48.902;12.472;2023-03-01T05:44:26;30.42;;;16.20;;
26271;SDS011;13997;48.902;12.472;2023-03-01T05:46:53;36.55;;;17.42;;
26271;SDS011;13997;48.902;12.472;2023-03-01T05:49:19;37.50;;;15.93;;
26271;SDS011;13997;48.902;12.472;2023-03-01T05:51:49;34.00;;;16.77;;
26271;SDS011;13997;48.902;12.472;2023-03-01T05:54:16;33.80;;;18.27;;
26271;SDS011;13997;48.902;12.472;2023-03-01T05:56:43;32.65;;;16.48;;
26271;SDS011;13997;48.902;12.472;2023-03-01T05:59:09;42.88;;;20.17;;
26271;SDS011;13997;48.902;12.472;2023-03-01T06:01:36;51.53;;;21.52;;
26271;SDS011;13997;48.902;12.472;2023-03-01T06:04:03;56.13;;;23.38;;
26271;SDS011;13997;48.902;12.472;2023-03-01T06:06:29;57.47;;;25.25;;
26271;SDS011;13997;48.902;12.472;2023-03-01T06:08:58;47.60;;;21.02;;
26271;SDS011;13997;48.902;12.472;2023-03-01T06:11:24;45.10;;;19.80;;
26271;SDS011;13997;48.902;12.472;2023-03-01T06:13:49;52.42;;;25.25;;
26271;SDS011;13997;48.902;12.472;2023-03-01T06:16:15;64.43;;;28.83;;
26271;SDS011;13997;48.902;12.472;2023-03-01T06:18:41;57.38;;;27.33;;
26271;SDS011;13997;48.902;12.472;2023-03-01T06:21:07;56.90;;;27.10;;
26271;SDS011;13997;48.902;12.472;2023-03-01T06:23:33;53.40;;;23.17;;
26271;SDS011;13997;48.902;12.472;2023-03-01T06:25:58;54.92;;;24.52;;
26271;SDS011;13997;48.902;12.472;2023-03-01T06:28:24;47.17;;;21.35;;
26271;SDS011;13997;48.902;12.472;2023-03-01T06:30:50;49.20;;;21.55;;
26271;SDS011;13997;48.902;12.472;2023-03-01T06:33:16;44.75;;;19.98;;
26271;SDS011;13997;48.902;12.472;2023-03-01T06:35:44;42.35;;;19.08;;
26271;SDS011;13997;48.902;12.472;2023-03-01T06:38:11;41.45;;;20.20;;
26271;SDS011;13997;48.902;12.472;2023-03-01T06:40:36;40.63;;;19.52;;
26271;SDS011;13997;48.902;12.472;2023-03-01T06:43:02;39.95;;;19.38;;
26271;SDS011;13997;48.902;12.472;2023-03-01T06:45:28;45.08;;;21.42;;
26271;SDS011;13997;48.902;12.472;2023-03-01T06:48:00;41.22;;;19.23;;
26271;SDS011;13997;48.902;12.472;2023-03-01T06:50:28;45.90;;;19.13;;
26271;SDS011;13997;48.902;12.472;2023-03-01T06:52:57;46.10;;;20.98;;
26271;SDS011;13997;48.902;12.472;2023-03-01T06:55:23;45.80;;;20.95;;
26271;SDS011;13997;48.902;12.472;2023-03-01T06:57:53;44.78;;;20.60;;
26271;SDS011;13997;48.902;12.472;2023-03-01T07:02:45;40.47;;;20.48;;
26271;SDS011;13997;48.902;12.472;2023-03-01T07:05:11;40.10;;;19.60;;
26271;SDS011;13997;48.902;12.472;2023-03-01T07:07:37;38.00;;;19.85;;
26271;SDS011;13997;48.902;12.472;2023-03-01T07:10:02;35.65;;;18.83;;
26271;SDS011;13997;48.902;12.472;2023-03-01T07:12:28;48.65;;;20.55;;
26271;SDS011;13997;48.902;12.472;2023-03-01T07:14:54;38.20;;;20.02;;
26271;SDS011;13997;48.902;12.472;2023-03-01T07:17:19;42.35;;;20.63;;
26271;SDS011;13997;48.902;12.472;2023-03-01T07:19:45;41.92;;;20.52;;
26271;SDS011;13997;48.902;12.472;2023-03-01T07:22:11;40.42;;;20.02;;
26271;SDS011;13997;48.902;12.472;2023-03-01T07:24:36;38.90;;;20.60;;
26271;SDS011;13997;48.902;12.472;2023-03-01T07:27:02;36.28;;;19.65;;
26271;SDS011;13997;48.902;12.472;2023-03-01T07:29:28;43.25;;;21.02;;
26271;SDS011;13997;48.902;12.472;2023-03-01T07:31:54;39.38;;;19.75;;
26271;SDS011;13997;48.902;12.472;2023-03-01T07:34:19;39.78;;;21.55;;
26271;SDS011;13997;48.902;12.472;2023-03-01T07:36:45;41.03;;;21.15;;
26271;SDS011;13997;48.902;12.472;2023-03-01T07:39:11;44.40;;;21.33;;
26271;SDS011;13997;48.902;12.472;2023-03-01T07:41:36;40.03;;;21.85;;
26271;SDS011;13997;48.902;12.472;2023-03-01T07:44:02;44.20;;;22.55;;
26271;SDS011;13997;48.902;12.472;2023-03-01T07:46:28;45.58;;;21.70;;
26271;SDS011;13997;48.902;12.472;2023-03-01T07:48:53;42.03;;;21.98;;
26271;SDS011;13997;48.902;12.472;2023-03-01T07:51:19;45.53;;;22.13;;
26271;SDS011;13997;48.902;12.472;2023-03-01T07:53:48;39.95;;;20.15;;
26271;SDS011;13997;48.902;12.472;2023-03-01T07:56:14;42.70;;;21.13;;
26271;SDS011;13997;48.902;12.472;2023-03-01T07:58:42;41.53;;;21.45;;
26271;SDS011;13997;48.902;12.472;2023-03-01T08:01:14;39.05;;;19.77;;
26271;SDS011;13997;48.902;12.472;2023-03-01T08:03:42;36.30;;;19.55;;
26271;SDS011;13997;48.902;12.472;2023-03-01T08:06:09;41.33;;;21.10;;
26271;SDS011;13997;48.902;12.472;2023-03-01T08:08:35;42.72;;;20.92;;
26271;SDS011;13997;48.902;12.472;2023-03-01T08:11:01;40.47;;;20.65;;
26271;SDS011;13997;48.902;12.472;2023-03-01T08:13:29;41.05;;;20.70;;
26271;SDS011;13997;48.902;12.472;2023-03-01T08:16:06;39.13;;;20.42;;
26271;SDS011;13997;48.902;12.472;2023-03-01T08:18:33;34.97;;;18.48;;
26271;SDS011;13997;48.902;12.472;2023-03-01T08:21:03;38.05;;;20.92;;
26271;SDS011;13997;48.902;12.472;2023-03-01T08:23:32;39.50;;;20.85;;
26271;SDS011;13997;48.902;12.472;2023-03-01T08:26:09;46.97;;;21.27;;
26271;SDS011;13997;48.902;12.472;2023-03-01T08:28:39;44.25;;;21.25;;
26271;SDS011;13997;48.902;12.472;2023-03-01T08:31:19;41.53;;;20.48;;
26271;SDS011;13997;48.902;12.472;2023-03-01T08:33:47;43.10;;;20.67;;
26271;SDS011;13997;48.902;12.472;2023-03-01T08:36:16;48.80;;;20.73;;
26271;SDS011;13997;48.902;12.472;2023-03-01T08:38:42;43.08;;;19.60;;
26271;SDS011;13997;48.902;12.472;2023-03-01T08:41:07;40.38;;;19.33;;
26271;SDS011;13997;48.902;12.472;2023-03-01T08:43:33;40.15;;;20.73;;
26271;SDS011;13997;48.902;12.472;2023-03-01T08:45:58;39.28;;;19.17;;
26271;SDS011;13997;48.902;12.472;2023-03-01T08:48:24;35.95;;;18.08;;
26271;SDS011;13997;48.902;12.472;2023-03-01T08:50:50;33.83;;;17.65;;
26271;SDS011;13997;48.902;12.472;2023-03-01T08:53:16;35.45;;;17.33;;
26271;SDS011;13997;48.902;12.472;2023-03-01T08:55:41;31.63;;;16.88;;
26271;SDS011;13997;48.902;12.472;2023-03-01T08:58:07;31.85;;;17.15;;
26271;SDS011;13997;48.902;12.472;2023-03-01T09:00:32;29.75;;;16.48;;
26271;SDS011;13997;48.902;12.472;2023-03-01T09:02:59;33.20;;;15.70;;
26271;SDS011;13997;48.902;12.472;2023-03-01T09:05:25;25.20;;;13.82;;
26271;SDS011;13997;48.902;12.472;2023-03-01T09:07:51;30.48;;;13.32;;
26271;SDS011;13997;48.902;12.472;2023-03-01T09:10:16;25.42;;;14.27;;
26271;SDS011;13997;48.902;12.472;2023-03-01T09:12:42;27.15;;;14.13;;
26271;SDS011;13997;48.902;12.472;2023-03-01T09:15:08;24.50;;;13.15;;
26271;SDS011;13997;48.902;12.472;2023-03-01T09:17:34;26.00;;;13.23;;
26271;SDS011;13997;48.902;12.472;2023-03-01T09:20:00;23.52;;;12.52;;
26271;SDS011;13997;48.902;12.472;2023-03-01T09:22:25;26.05;;;14.75;;
26271;SDS011;13997;48.902;12.472;2023-03-01T09:24:51;26.42;;;14.52;;
26271;SDS011;13997;48.902;12.472;2023-03-01T09:27:16;29.10;;;12.80;;
26271;SDS011;13997;48.902;12.472;2023-03-01T09:29:44;27.33;;;14.68;;
26271;SDS011;13997;48.902;12.472;2023-03-01T09:32:09;29.95;;;15.30;;
26271;SDS011;13997;48.902;12.472;2023-03-01T09:34:35;30.25;;;14.50;;
26271;SDS011;13997;48.902;12.472;2023-03-01T09:37:21;27.92;;;15.65;;
26271;SDS011;13997;48.902;12.472;2023-03-01T09:39:47;24.95;;;14.15;;
26271;SDS011;13997;48.902;12.472;2023-03-01T09:42:13;23.27;;;13.48;;
26271;SDS011;13997;48.902;12.472;2023-03-01T09:49:57;22.30;;;12.63;;
26271;SDS011;13997;48.902;12.472;2023-03-01T09:52:40;21.42;;;11.88;;
26271;SDS011;13997;48.902;12.472;2023-03-01T10:01:02;17.05;;;9.32;;
26271;SDS011;13997;48.902;12.472;2023-03-01T10:03:51;22.15;;;11.98;;
26271;SDS011;13997;48.902;12.472;2023-03-01T10:06:29;22.00;;;12.18;;
26271;SDS011;13997;48.902;12.472;2023-03-01T10:08:56;18.70;;;10.82;;
26271;SDS011;13997;48.902;12.472;2023-03-01T10:11:41;19.38;;;10.55;;
26271;SDS011;13997;48.902;12.472;2023-03-01T10:16:48;17.42;;;9.30;;
26271;SDS011;13997;48.902;12.472;2023-03-01T10:19:51;21.70;;;11.52;;
26271;SDS011;13997;48.902;12.472;2023-03-01T10:22:13;16.23;;;8.80;;
26271;SDS011;13997;48.902;12.472;2023-03-01T10:24:49;16.60;;;10.02;;
26271;SDS011;13997;48.902;12.472;2023-03-01T10:32:32;15.60;;;9.77;;
26271;SDS011;13997;48.902;12.472;2023-03-01T10:34:58;19.17;;;10.18;;
26271;SDS011;13997;48.902;12.472;2023-03-01T10:37:23;15.65;;;9.30;;
26271;SDS011;13997;48.902;12.472;2023-03-01T10:42:32;20.65;;;11.13;;
26271;SDS011;13997;48.902;12.472;2023-03-01T10:47:40;18.70;;;10.03;;
26271;SDS011;13997;48.902;12.472;2023-03-01T10:50:17;15.75;;;9.23;;
26271;SDS011;13997;48.902;12.472;2023-03-01T10:52:58;18.23;;;10.35;;
26271;SDS011;13997;48.902;12.472;2023-03-01T10:55:34;16.15;;;8.73;;
26271;SDS011;13997;48.902;12.472;2023-03-01T10:58:20;19.25;;;9.02;;
26271;SDS011;13997;48.902;12.472;2023-03-01T11:00:51;19.42;;;9.70;;
26271;SDS011;13997;48.902;12.472;2023-03-01T11:03:20;16.73;;;10.02;;
26271;SDS011;13997;48.902;12.472;2023-03-01T11:08:38;20.10;;;9.60;;
26271;SDS011;13997;48.902;12.472;2023-03-01T11:16:47;16.33;;;10.05;;
26271;SDS011;13997;48.902;12.472;2023-03-01T11:19:22;19.80;;;10.07;;
26271;SDS011;13997;48.902;12.472;2023-03-01T11:24:44;20.65;;;10.77;;
26271;SDS011;13997;48.902;12.472;2023-03-01T11:29:51;20.90;;;11.93;;
26271;SDS011;13997;48.902;12.472;2023-03-01T11:32:42;20.60;;;11.48;;
26271;SDS011;13997;48.902;12.472;2023-03-01T11:35:18;23.25;;;11.75;;
26271;SDS011;13997;48.902;12.472;2023-03-01T11:40:28;22.40;;;12.60;;
26271;SDS011;13997;48.902;12.472;2023-03-01T11:43:23;21.40;;;12.27;;
26271;SDS011;13997;48.902;12.472;2023-03-01T11:51:45;21.02;;;12.05;;
26271;SDS011;13997;48.902;12.472;2023-03-01T11:54:18;24.15;;;12.60;;
26271;SDS011;13997;48.902;12.472;2023-03-01T11:59:45;20.77;;;12.68;;
26271;SDS011;13997;48.902;12.472;2023-03-01T12:11:12;23.73;;;13.73;;
26271;SDS011;13997;48.902;12.472;2023-03-01T12:13:57;26.83;;;14.75;;
26271;SDS011;13997;48.902;12.472;2023-03-01T12:22:47;22.27;;;12.90;;
26271;SDS011;13997;48.902;12.472;2023-03-01T12:25:31;26.17;;;14.70;;
26271;SDS011;13997;48.902;12.472;2023-03-01T12:28:08;26.27;;;14.23;;
26271;SDS011;13997;48.902;12.472;2023-03-01T12:33:21;32.05;;;16.13;;
26271;SDS011;13997;48.902;12.472;2023-03-01T12:36:07;34.78;;;15.52;;
26271;SDS011;13997;48.902;12.472;2023-03-01T12:44:01;29.90;;;16.63;;
26271;SDS011;13997;48.902;12.472;2023-03-01T12:46:56;29.40;;;16.80;;
26271;SDS011;13997;48.902;12.472;2023-03-01T12:49:55;28.00;;;15.57;;
26271;SDS011;13997;48.902;12.472;2023-03-01T12:54:51;29.60;;;16.85;;
26271;SDS011;13997;48.902;12.472;2023-03-01T13:02:47;33.08;;;18.75;;
26271;SDS011;13997;48.902;12.472;2023-03-01T13:05:24;33.92;;;18.17;;
26271;SDS011;13997;48.902;12.472;2023-03-01T13:08:19;32.90;;;17.65;;
26271;SDS011;13997;48.902;12.472;2023-03-01T13:10:54;33.03;;;18.13;;
26271;SDS011;13997;48.902;12.472;2023-03-01T13:13:26;30.00;;;17.38;;
26271;SDS011;13997;48.902;12.472;2023-03-01T13:15:52;32.72;;;18.38;;
26271;SDS011;13997;48.902;12.472;2023-03-01T13:20:54;31.60;;;18.20;;
26271;SDS011;13997;48.902;12.472;2023-03-01T13:31:07;32.92;;;18.88;;
26271;SDS011;13997;48.902;12.472;2023-03-01T13:36:55;29.67;;;17.35;;
26271;SDS011;13997;48.902;12.472;2023-03-01T13:39:18;29.48;;;17.65;;
26271;SDS011;13997;48.902;12.472;2023-03-01T13:41:53;29.85;;;17.02;;
26271;SDS011;13997;48.902;12.472;2023-03-01T13:44:37;30.00;;;18.05;;
26271;SDS011;13997;48.902;12.472;2023-03-01T13:49:42;31.88;;;18.38;;
26271;SDS011;13997;48.902;12.472;2023-03-01T13:52:34;34.10;;;18.20;;
26271;SDS011;13997;48.902;12.472;2023-03-01T13:57:40;32.28;;;18.35;;
26271;SDS011;13997;48.902;12.472;2023-03-01T14:00:28;32.38;;;17.98;;
26271;SDS011;13997;48.902;12.472;2023-03-01T14:03:18;32.88;;;17.52;;
26271;SDS011;13997;48.902;12.472;2023-03-01T14:06:02;30.23;;;17.15;;
26271;SDS011;13997;48.902;12.472;2023-03-01T14:08:33;29.70;;;17.27;;
26271;SDS011;13997;48.902;12.472;2023-03-01T14:13:29;28.30;;;17.25;;
26271;SDS011;13997;48.902;12.472;2023-03-01T14:16:14;33.08;;;17.42;;
26271;SDS011;13997;48.902;12.472;2023-03-01T14:21:26;29.98;;;16.48;;
26271;SDS011;13997;48.902;12.472;2023-03-01T14:23:52;30.92;;;18.38;;
26271;SDS011;13997;48.902;12.472;2023-03-01T14:26:21;30.15;;;17.55;;
26271;SDS011;13997;48.902;12.472;2023-03-01T14:28:48;26.10;;;16.17;;
26271;SDS011;13997;48.902;12.472;2023-03-01T14:34:03;30.30;;;15.80;;
26271;SDS011;13997;48.902;12.472;2023-03-01T14:36:30;27.33;;;15.35;;
26271;SDS011;13997;48.902;12.472;2023-03-01T14:38:57;29.02;;;16.38;;
26271;SDS011;13997;48.902;12.472;2023-03-01T14:41:31;27.50;;;15.98;;
26271;SDS011;13997;48.902;12.472;2023-03-01T14:44:00;30.23;;;16.02;;
26271;SDS011;13997;48.902;12.472;2023-03-01T14:46:31;30.43;;;16.17;;
26271;SDS011;13997;48.902;12.472;2023-03-01T14:51:42;27.50;;;16.30;;
26271;SDS011;13997;48.902;12.472;2023-03-01T14:54:20;27.42;;;15.50;;
26271;SDS011;13997;48.902;12.472;2023-03-01T14:56:57;27.80;;;15.73;;
26271;SDS011;13997;48.902;12.472;2023-03-01T14:59:25;29.33;;;15.23;;
26271;SDS011;13997;48.902;12.472;2023-03-01T15:01:51;28.70;;;15.45;;
26271;SDS011;13997;48.902;12.472;2023-03-01T15:04:20;27.13;;;15.90;;
26271;SDS011;13997;48.902;12.472;2023-03-01T15:06:52;26.75;;;14.88;;
26271;SDS011;13997;48.902;12.472;2023-03-01T15:09:20;28.10;;;15.68;;
26271;SDS011;13997;48.902;12.472;2023-03-01T15:11:47;27.05;;;15.25;;
26271;SDS011;13997;48.902;12.472;2023-03-01T15:14:25;28.20;;;15.20;;
26271;SDS011;13997;48.902;12.472;2023-03-01T15:17:16;31.05;;;17.20;;
26271;SDS011;13997;48.902;12.472;2023-03-01T15:19:49;29.60;;;16.70;;
26271;SDS011;13997;48.902;12.472;2023-03-01T15:22:15;31.98;;;16.40;;
26271;SDS011;13997;48.902;12.472;2023-03-01T15:24:41;36.97;;;17.33;;
26271;SDS011;13997;48.902;12.472;2023-03-01T15:27:14;29.88;;;15.63;;
26271;SDS011;13997;48.902;12.472;2023-03-01T15:30:04;29.77;;;15.47;;
26271;SDS011;13997;48.902;12.472;2023-03-01T15:32:33;29.83;;;15.68;;
26271;SDS011;13997;48.902;12.472;2023-03-01T15:35:33;31.92;;;16.23;;
26271;SDS011;13997;48.902;12.472;2023-03-01T15:41:02;29.50;;;14.40;;
26271;SDS011;13997;48.902;12.472;2023-03-01T15:43:43;27.67;;;14.70;;
26271;SDS011;13997;48.902;12.472;2023-03-01T15:48:57;30.52;;;16.88;;
26271;SDS011;13997;48.902;12.472;2023-03-01T15:51:29;31.73;;;18.50;;
26271;SDS011;13997;48.902;12.472;2023-03-01T15:54:04;33.47;;;17.33;;
26271;SDS011;13997;48.902;12.472;2023-03-01T15:56:35;29.55;;;16.20;;
26271;SDS011;13997;48.902;12.472;2023-03-01T15:59:01;33.92;;;17.48;;
26271;SDS011;13997;48.902;12.472;2023-03-01T16:01:27;26.27;;;15.55;;
26271;SDS011;13997;48.902;12.472;2023-03-01T16:03:53;32.20;;;16.00;;
26271;SDS011;13997;48.902;12.472;2023-03-01T16:06:19;29.77;;;16.17;;
26271;SDS011;13997;48.902;12.472;2023-03-01T16:08:45;30.67;;;16.80;;
26271;SDS011;13997;48.902;12.472;2023-03-01T16:11:17;32.38;;;15.68;;
26271;SDS011;13997;48.902;12.472;2023-03-01T16:13:45;25.85;;;14.90;;
26271;SDS011;13997;48.902;12.472;2023-03-01T16:16:11;28.77;;;15.60;;
26271;SDS011;13997;48.902;12.472;2023-03-01T16:18:40;24.67;;;14.75;;
26271;SDS011;13997;48.902;12.472;2023-03-01T16:21:08;30.23;;;14.40;;
26271;SDS011;13997;48.902;12.472;2023-03-01T16:23:37;24.17;;;14.25;;
26271;SDS011;13997;48.902;12.472;2023-03-01T16:26:03;26.15;;;14.82;;
26271;SDS011;13997;48.902;12.472;2023-03-01T16:28:28;30.58;;;14.40;;
26271;SDS011;13997;48.902;12.472;2023-03-01T16:30:54;28.35;;;14.13;;
26271;SDS011;13997;48.902;12.472;2023-03-01T16:33:19;24.30;;;13.73;;
26271;SDS011;13997;48.902;12.472;2023-03-01T16:35:45;28.58;;;14.88;;
26271;SDS011;13997;48.902;12.472;2023-03-01T16:38:11;30.88;;;14.95;;
26271;SDS011;13997;48.902;12.472;2023-03-01T16:40:36;27.20;;;14.57;;